Time;durP1;ratioP1;P1;durP2;ratioP2;P2;SDS_P1;SDS_P2;PMS_P1;PMS_P2;Temp;Humidity;BMP_temperature;BMP_pressure;BME280_temperature;BME280_humidity;BME280_pressure;Samples;Min_cycle;Max_cycle;Signal;HPM_P1;HPM_P2
2022/12/15 01:21:45;;;;;;;16.17;10.60;;;;;;;-1.41;75.51;99713.53;6338767;22;20022;-71
2022/12/15 01:24:51;;;;;;;20.48;13.07;;;;;;;-1.67;75.50;99730.19;6339023;22;20026;-71
2022/12/15 01:33:25;;;;;;;18.42;13.38;;;;;;;-1.58;75.58;99743.75;6338727;22;20440;-71
2022/12/15 01:36:31;;;;;;;20.17;12.00;;;;;;;-2.06;76.26;99749.53;6338782;22;20022;-71
2022/12/15 01:44:27;;;;;;;20.27;13.70;;;;;;;-1.76;74.93;99753.38;6182699;23;20032;-71
2022/12/15 01:47:31;;;;;;;21.40;12.75;;;;;;;-1.98;75.82;99750.28;6182865;23;20025;-70
2022/12/15 01:50:52;;;;;;;16.75;11.75;;;;;;;-1.83;75.44;99754.34;6228253;22;20492;-70
2022/12/15 01:54:09;;;;;;;20.30;13.90;;;;;;;-1.71;74.56;99751.59;6306425;22;20090;-70
2022/12/15 01:57:18;;;;;;;20.27;12.95;;;;;;;-1.83;74.49;99762.03;6307479;22;20034;-70
2022/12/15 02:00:23;;;;;;;22.92;13.55;;;;;;;-1.79;74.48;99771.34;6288698;22;20026;-70
2022/12/15 02:03:27;;;;;;;19.30;12.70;;;;;;;-1.81;74.55;99780.81;6307453;22;20076;-70
2022/12/15 02:06:31;;;;;;;16.33;12.20;;;;;;;-1.92;74.77;99772.41;6307143;22;20026;-70
2022/12/15 02:09:34;;;;;;;18.85;13.75;;;;;;;-1.96;74.71;99786.13;6307322;22;20104;-70
2022/12/15 02:12:45;;;;;;;16.83;12.27;;;;;;;-2.15;75.06;99778.66;6307414;22;20072;-70
2022/12/15 02:16:04;;;;;;;18.02;13.25;;;;;;;-2.27;75.56;99780.53;6307343;22;20072;-70
2022/12/15 02:19:33;;;;;;;19.15;12.75;;;;;;;-2.09;75.16;99789.72;6307372;22;20022;-70
2022/12/15 02:23:14;;;;;;;17.73;12.50;;;;;;;-1.94;74.74;99785.25;6307283;22;20026;-70
2022/12/15 02:26:59;;;;;;;16.00;11.45;;;;;;;-2.18;75.03;99794.06;6307137;22;20392;-70
2022/12/15 02:30:18;;;;;;;18.25;14.43;;;;;;;-2.12;74.91;99795.72;6307288;22;20449;-70
2022/12/15 02:33:28;;;;;;;17.55;12.38;;;;;;;-2.01;74.57;99799.00;6307256;22;20347;-70
2022/12/15 02:36:36;;;;;;;18.50;13.27;;;;;;;-2.22;74.35;99783.91;6306999;22;20025;-71
2022/12/15 02:39:42;;;;;;;17.45;12.60;;;;;;;-2.10;74.32;99788.88;6307035;22;20044;-71
2022/12/15 02:42:53;;;;;;;19.42;12.82;;;;;;;-2.27;74.46;99789.06;6337079;22;20032;-71
2022/12/15 02:46:24;;;;;;;21.55;14.02;;;;;;;-1.98;74.34;99788.72;6319148;22;20026;-71
2022/12/15 02:55:11;;;;;;;21.08;13.55;;;;;;;-2.01;73.93;99786.19;6242649;23;20107;-70
2022/12/15 02:58:27;;;;;;;20.38;13.85;;;;;;;-1.89;73.91;99798.81;6275854;22;20341;-71
2022/12/15 03:01:55;;;;;;;22.27;14.45;;;;;;;-1.88;74.24;99812.50;6339462;22;20119;-70
2022/12/15 03:05:36;;;;;;;20.15;12.68;;;;;;;-1.95;74.87;99818.56;6340101;22;20057;-70
2022/12/15 03:14:02;;;;;;;19.73;13.80;;;;;;;-1.67;73.86;99819.03;6339840;22;20052;-70
2022/12/15 03:18:07;;;;;;;;;;;;;;;;;;;;;
2022/12/15 03:26:58;;;;;;;21.83;15.60;;;;;;;-1.59;74.25;99824.09;6339785;22;20097;-70
2022/12/15 03:30:01;;;;;;;23.88;16.38;;;;;;;-1.64;75.25;99827.53;6340066;22;20037;-70
2022/12/15 03:33:04;;;;;;;23.23;16.60;;;;;;;-1.81;75.19;99820.97;6339894;22;20026;-71
2022/12/15 03:36:11;;;;;;;21.70;15.70;;;;;;;-1.65;74.95;99818.16;6339823;22;20037;-71
2022/12/15 03:39:15;;;;;;;24.00;15.95;;;;;;;-1.68;74.27;99819.94;6340002;22;20022;-71
2022/12/15 03:42:47;;;;;;;22.27;15.93;;;;;;;-1.80;75.63;99822.66;6338532;22;20080;-71
2022/12/15 03:45:42;;;;;;;21.98;15.23;;;;;;;-1.94;75.54;99820.28;6339798;22;20082;-71
2022/12/15 03:48:45;;;;;;;24.98;16.70;;;;;;;-1.80;75.32;99826.06;6339765;22;20026;-71
2022/12/15 03:51:49;;;;;;;21.38;16.17;;;;;;;-1.73;75.21;99829.38;6339692;22;20064;-71
2022/12/15 03:54:52;;;;;;;26.67;17.95;;;;;;;-1.86;74.68;99836.38;6339696;22;20056;-71
2022/12/15 03:57:56;;;;;;;24.88;17.50;;;;;;;-2.49;75.93;99834.56;6339689;22;20097;-71
2022/12/15 04:01:12;;;;;;;24.98;16.75;;;;;;;-2.18;75.85;99832.50;6339691;22;20022;-71
2022/12/15 04:04:16;;;;;;;23.92;16.58;;;;;;;-2.29;76.58;99834.34;6339736;22;20103;-71
2022/12/15 04:07:19;;;;;;;25.25;16.90;;;;;;;-2.04;75.29;99844.28;6339443;22;20021;-71
2022/12/15 04:10:25;;;;;;;22.10;16.45;;;;;;;-1.92;75.29;99851.81;6339679;22;20071;-71
2022/12/15 04:13:28;;;;;;;23.85;16.70;;;;;;;-1.94;74.68;99856.16;6339389;22;20499;-71
2022/12/15 04:16:31;;;;;;;20.05;15.23;;;;;;;-1.87;74.64;99860.31;6339495;22;20103;-71
2022/12/15 04:22:59;;;;;;;25.73;17.98;;;;;;;-1.67;74.09;99866.03;6339415;22;20026;-71
2022/12/15 05:34:01;;;;;;;24.05;14.80;;;;;;;-1.88;73.93;99884.25;6307549;22;20064;-70
2022/12/15 05:37:06;;;;;;;22.60;15.63;;;;;;;-1.85;74.16;99891.91;6307319;22;20018;-70
2022/12/15 05:40:14;;;;;;;23.73;15.18;;;;;;;-1.88;73.89;99899.63;6303579;22;20104;-71
2022/12/15 05:43:18;;;;;;;21.60;14.73;;;;;;;-1.76;73.83;99899.47;6283939;22;20101;-70
2022/12/15 05:46:21;;;;;;;20.70;14.90;;;;;;;-2.05;74.97;99915.16;6299030;22;20026;-70
2022/12/15 05:49:24;;;;;;;;;;;;;;;-1.78;74.12;99915.75;6298282;22;20058;-70
2022/12/15 05:53:14;;;;;;;;;;;;;;;;;;;;;
2022/12/15 05:56:20;;;;;;;20.70;14.02;;;;;;;-1.67;73.72;99914.72;6297400;22;20037;-73
2022/12/15 05:59:24;;;;;;;19.35;13.93;;;;;;;-1.68;73.57;99918.16;6294372;22;20022;-72
2022/12/15 06:02:28;;;;;;;19.27;13.70;;;;;;;-1.70;73.52;99914.78;6293093;22;20076;-73
2022/12/15 06:05:31;;;;;;;;;;;;;;;-1.71;73.90;99920.78;6302897;22;20370;-70
2022/12/15 06:08:40;;;;;;;19.98;14.55;;;;;;;-1.86;73.83;99910.69;6283722;22;20328;-69
2022/12/15 06:11:44;;;;;;;20.13;15.65;;;;;;;-1.71;73.10;99915.66;6302473;22;20073;-70
2022/12/15 06:14:47;;;;;;;19.77;14.90;;;;;;;-1.62;73.13;99924.09;6299932;22;20022;-70
2022/12/15 06:17:52;;;;;;;21.08;13.57;;;;;;;-1.56;72.40;99924.88;6301373;22;20022;-70
2022/12/15 06:21:19;;;;;;;18.10;13.07;;;;;;;-1.62;72.76;99934.34;6300882;22;20022;-70
2022/12/15 06:24:23;;;;;;;19.27;14.73;;;;;;;-1.89;73.30;99941.47;6303378;22;20023;-70
2022/12/15 06:32:37;;;;;;;24.88;14.95;;;;;;;-1.65;72.52;99955.75;6299339;22;20389;-70
2022/12/15 06:35:40;;;;;;;22.38;15.68;;;;;;;-1.64;72.28;99957.44;6301415;22;20022;-70
2022/12/15 06:43:36;;;;;;;22.13;14.15;;;;;;;-1.96;72.93;99966.31;6179672;23;20024;-69
2022/12/15 06:46:39;;;;;;;24.10;14.70;;;;;;;-1.71;72.53;99966.06;6257445;22;20350;-70
2022/12/15 06:49:43;;;;;;;18.77;14.23;;;;;;;-1.82;72.64;99968.72;6301932;22;20031;-70
2022/12/15 06:52:46;;;;;;;20.02;14.38;;;;;;;-2.01;72.59;99959.53;6303039;22;20307;-70
2022/12/15 06:55:50;;;;;;;;;;;;;;;-1.95;72.93;99956.91;6302904;22;20029;-70
2022/12/15 06:59:00;;;;;;;16.08;11.90;;;;;;;-1.91;72.58;99966.28;6302526;22;20114;-70
2022/12/15 07:02:03;;;;;;;22.27;13.35;;;;;;;-2.01;72.05;99967.22;6302723;22;20058;-70
2022/12/15 07:05:32;;;;;;;17.83;13.30;;;;;;;-2.03;72.40;99961.28;6302033;22;20026;-70
2022/12/15 07:08:36;;;;;;;20.35;13.23;;;;;;;-1.94;72.90;99954.34;6302277;22;20049;-70
2022/12/15 07:11:39;;;;;;;21.23;14.20;;;;;;;-2.14;72.96;99967.38;6301823;22;20081;-70
2022/12/15 07:14:43;;;;;;;25.02;14.63;;;;;;;-2.19;72.88;99969.09;6303210;22;20636;-70
2022/12/15 07:17:46;;;;;;;22.35;14.50;;;;;;;-1.92;72.47;99972.25;6283039;22;20482;-70
2022/12/15 07:20:49;;;;;;;20.80;14.02;;;;;;;-1.97;73.23;99974.03;6302696;22;20107;-70
2022/12/15 07:23:53;;;;;;;21.10;15.00;;;;;;;-2.20;73.51;99982.78;6303630;22;20073;-70
2022/12/15 07:26:56;;;;;;;20.90;15.52;;;;;;;-1.84;72.24;99978.16;6303632;22;20071;-70
2022/12/15 07:30:00;;;;;;;24.38;16.48;;;;;;;-1.90;72.39;99980.78;6304296;22;20136;-70
2022/12/15 07:33:04;;;;;;;21.88;14.65;;;;;;;-2.12;72.35;99975.88;6304606;22;20089;-70
2022/12/15 07:36:08;;;;;;;20.80;15.68;;;;;;;-1.96;72.25;99970.59;6302170;22;20120;-70
2022/12/15 07:39:11;;;;;;;27.85;20.15;;;;;;;-2.01;72.79;99977.47;6301174;22;20058;-70
2022/12/15 07:42:14;;;;;;;22.27;16.15;;;;;;;-1.99;72.75;99980.88;6302020;22;20029;-71
2022/12/15 07:45:18;;;;;;;24.50;16.35;;;;;;;-1.73;71.93;99989.13;6325271;22;20041;-71
2022/12/15 07:48:22;;;;;;;21.45;16.40;;;;;;;-1.83;71.99;99992.66;6333480;22;20022;-70
2022/12/15 07:51:26;;;;;;;20.38;14.45;;;;;;;-1.80;71.85;99992.63;6334151;22;20080;-70
2022/12/15 07:54:29;;;;;;;20.67;14.63;;;;;;;-2.09;72.51;99999.75;6332582;22;20321;-70
2022/12/15 07:57:33;;;;;;;20.13;14.25;;;;;;;-1.75;71.43;100001.13;6332849;22;20018;-70
2022/12/15 08:00:36;;;;;;;19.58;14.20;;;;;;;-1.68;71.76;100007.88;6332742;22;20068;-70
2022/12/15 08:03:40;;;;;;;22.65;15.93;;;;;;;-1.83;72.19;100007.19;6333081;22;20026;-70
2022/12/15 08:06:44;;;;;;;22.70;15.30;;;;;;;-1.72;71.91;100011.34;6333651;22;20021;-70
2022/12/15 08:09:48;;;;;;;19.88;15.30;;;;;;;-1.55;71.46;100013.72;6333676;22;20049;-70
2022/12/15 08:12:51;;;;;;;25.50;16.85;;;;;;;-1.62;71.72;100017.22;6333061;22;20080;-70
2022/12/15 08:15:55;;;;;;;29.30;19.83;;;;;;;-1.65;71.95;100012.97;6332788;22;20048;-70
2022/12/15 08:18:58;;;;;;;24.95;16.40;;;;;;;-1.81;72.15;100021.69;6332585;22;20021;-70
2022/12/15 08:22:02;;;;;;;23.70;17.33;;;;;;;-1.89;73.01;100020.91;6312905;22;20049;-70
2022/12/15 08:25:05;;;;;;;23.52;18.50;;;;;;;-1.51;71.25;100019.66;6333087;22;20473;-70
2022/12/15 08:28:10;;;;;;;23.63;15.75;;;;;;;-1.71;70.99;100017.31;6333579;22;20538;-70
2022/12/15 08:31:21;;;;;;;23.88;15.57;;;;;;;-1.75;70.61;100016.50;6334541;22;20026;-70
2022/12/15 08:34:27;;;;;;;;;;;;;;;-1.72;70.63;100016.47;6335560;22;20038;-70
2022/12/15 08:37:32;;;;;;;23.63;15.35;;;;;;;-1.70;71.18;100019.00;6332537;22;20971;-70
2022/12/15 08:40:35;;;;;;;21.48;15.77;;;;;;;-1.87;71.68;100022.59;6332595;22;20025;-70
2022/12/15 08:43:40;;;;;;;24.35;15.50;;;;;;;-2.09;72.81;100015.13;6330742;22;20072;-70
2022/12/15 08:46:43;;;;;;;24.52;15.73;;;;;;;-1.80;72.26;100007.16;6331889;22;20030;-70
2022/12/15 08:49:47;;;;;;;22.27;15.70;;;;;;;-1.72;72.58;100013.91;6332953;22;20029;-70
2022/12/15 08:52:50;;;;;;;21.98;16.38;;;;;;;-1.64;71.51;100019.78;6333522;22;20514;-70
2022/12/15 08:55:54;;;;;;;;;;;;;;;-1.42;70.65;100028.09;6334053;22;20452;-70
2022/12/15 08:59:00;;;;;;;21.73;14.90;;;;;;;-1.49;70.48;100023.06;6313061;22;19913;-71
2022/12/15 09:02:03;;;;;;;18.55;13.73;;;;;;;-1.52;70.75;100033.38;6295480;22;20476;-73
2022/12/15 09:05:07;;;;;;;15.55;11.38;;;;;;;-1.32;69.84;100039.09;6331348;22;20061;-70
2022/12/15 09:08:10;;;;;;;26.75;14.93;;;;;;;-1.51;70.86;100047.88;6332735;22;20342;-70
2022/12/15 09:11:14;;;;;;;20.58;14.45;;;;;;;-1.55;71.39;100046.22;6314032;22;20452;-71
2022/12/15 09:14:17;;;;;;;18.80;13.98;;;;;;;-1.75;71.38;100052.41;6313626;22;20072;-74
2022/12/15 09:32:23;;;;;;;22.55;15.85;;;;;;;-2.30;75.60;100077.59;6241942;22;20404;-71
2022/12/15 09:35:29;;;;;;;23.70;15.55;;;;;;;-2.05;74.28;100080.84;6300911;22;20087;-73
2022/12/15 09:38:34;;;;;;;21.88;15.60;;;;;;;-1.72;72.95;100095.09;6301846;22;20018;-70
2022/12/15 09:41:39;;;;;;;22.23;16.17;;;;;;;-1.89;72.59;100100.34;6301661;22;20423;-70
2022/12/15 09:44:43;;;;;;;21.67;16.30;;;;;;;-1.38;71.81;100087.91;6301792;22;20390;-71
2022/12/15 09:47:55;;;;;;;23.73;16.95;;;;;;;-1.44;71.63;100098.22;6301234;22;20133;-71
2022/12/15 09:51:00;;;;;;;22.45;16.17;;;;;;;-1.51;72.18;100102.56;6302736;22;20496;-70
2022/12/15 09:54:04;;;;;;;23.55;18.83;;;;;;;-1.03;71.29;100094.34;6300655;22;20398;-70
2022/12/15 09:57:25;;;;;;;23.30;17.23;;;;;;;-1.24;71.57;100098.88;6300388;22;20026;-70
2022/12/15 10:00:54;;;;;;;22.00;17.17;;;;;;;-1.17;71.50;100107.34;6300919;22;20049;-71
2022/12/15 10:04:09;;;;;;;22.48;16.80;;;;;;;-1.34;71.95;100115.25;6299766;22;20022;-70
2022/12/15 10:07:28;;;;;;;23.70;16.42;;;;;;;-1.37;71.60;100111.81;6300398;22;20045;-71
2022/12/15 10:10:52;;;;;;;22.63;17.80;;;;;;;-1.24;71.13;100101.44;6301544;22;20026;-71
2022/12/15 10:14:07;;;;;;;19.70;15.25;;;;;;;-1.09;71.27;100095.28;6300901;22;20529;-71
2022/12/15 10:17:24;;;;;;;22.38;17.13;;;;;;;-1.43;72.23;100110.19;6298508;22;20018;-71
2022/12/15 10:20:29;;;;;;;22.60;17.50;;;;;;;-1.51;73.29;100115.38;6299496;22;20072;-71
2022/12/15 10:23:35;;;;;;;25.35;18.95;;;;;;;-1.29;72.14;100115.19;6299073;22;20018;-71
2022/12/15 10:26:41;;;;;;;23.05;18.40;;;;;;;-1.27;71.94;100100.63;6300247;22;20089;-71
2022/12/15 10:30:00;;;;;;;24.92;18.35;;;;;;;-1.16;70.85;100093.66;6300542;22;20026;-71
2022/12/15 10:33:21;;;;;;;25.38;17.02;;;;;;;-1.26;71.71;100095.47;6268958;22;20026;-71
2022/12/15 10:36:24;;;;;;;24.08;19.13;;;;;;;-1.07;70.96;100103.81;6270479;22;20026;-71
2022/12/15 10:39:37;;;;;;;22.73;17.52;;;;;;;-1.05;71.12;100091.81;6270233;22;20045;-70
2022/12/15 10:43:11;;;;;;;23.83;18.70;;;;;;;-1.23;71.86;100098.00;6270374;22;20058;-70
2022/12/15 10:46:17;;;;;;;;;;;;;;;-1.20;71.21;100097.13;6269043;22;20040;-70
2022/12/15 10:49:22;;;;;;;27.02;20.42;;;;;;;-1.14;71.11;100093.66;6268798;22;19926;-71
2022/12/15 10:52:33;;;;;;;24.17;18.55;;;;;;;-1.44;72.47;100093.09;6269718;22;20099;-71
2022/12/15 10:55:38;;;;;;;25.50;18.80;;;;;;;-1.23;72.67;100090.31;6269296;22;20059;-71
2022/12/15 10:58:49;;;;;;;22.85;17.63;;;;;;;-1.16;71.89;100078.25;6269612;22;20454;-71
2022/12/15 11:01:53;;;;;;;28.75;18.20;;;;;;;-1.11;72.00;100075.66;6269291;22;20026;-71
2022/12/15 11:05:19;;;;;;;22.65;16.95;;;;;;;-1.08;71.51;100075.63;6269457;22;20130;-70
2022/12/15 11:08:24;;;;;;;20.73;16.60;;;;;;;-1.18;72.13;100069.75;6270221;22;20110;-71
2022/12/15 11:14:57;;;;;;;25.17;19.52;;;;;;;-0.90;71.23;100061.69;6268542;22;20073;-70
2022/12/15 11:18:03;;;;;;;;;;;;;;;-0.96;71.08;100070.31;6270220;22;20398;-71
2022/12/15 11:21:50;;;;;;;31.17;20.83;;;;;;;-1.29;72.02;100074.97;6269920;22;19918;-70
2022/12/15 11:33:11;;;;;;;20.05;16.38;;;;;;;-1.44;72.21;100075.13;6271799;22;20026;-70
2022/12/15 11:36:51;;;;;;;25.83;19.00;;;;;;;-1.79;73.93;100063.50;6272057;22;20023;-70
2022/12/15 11:40:29;;;;;;;24.63;19.33;;;;;;;-1.73;73.50;100054.94;6272370;22;20022;-70
2022/12/15 11:44:15;;;;;;;24.35;18.90;;;;;;;-1.41;72.98;100058.00;6270777;22;20401;-69
2022/12/15 11:47:39;;;;;;;24.77;18.45;;;;;;;-1.28;72.44;100045.88;6252059;22;20398;-69
2022/12/15 11:51:06;;;;;;;27.17;19.77;;;;;;;-1.30;72.21;100034.81;6270236;22;20576;-70
2022/12/15 11:54:34;;;;;;;23.00;17.17;;;;;;;-1.33;72.40;100023.75;6270048;22;20069;-69
2022/12/15 11:58:02;;;;;;;23.95;17.95;;;;;;;-1.12;71.83;100027.75;6270030;22;20520;-71
2022/12/15 12:01:15;;;;;;;22.60;17.40;;;;;;;-1.07;72.24;100015.72;6270889;22;20104;-72
2022/12/15 12:04:25;;;;;;;22.88;14.98;;;;;;;-0.97;71.45;100023.28;6270782;22;20027;-72
2022/12/15 12:07:32;;;;;;;22.02;19.05;;;;;;;-0.95;71.91;100025.84;6269930;22;20062;-72
2022/12/15 12:10:55;;;;;;;25.27;19.95;;;;;;;-0.87;71.58;100018.88;6268291;22;20057;-72
2022/12/15 12:14:23;;;;;;;21.40;17.63;;;;;;;-0.91;71.70;100021.50;6271560;22;20030;-72
2022/12/15 12:17:36;;;;;;;23.48;18.33;;;;;;;-1.43;72.78;100023.84;6269263;22;20023;-72
2022/12/15 12:20:48;;;;;;;26.08;19.20;;;;;;;-1.36;73.48;100028.91;6268858;22;20374;-74
2022/12/15 12:23:51;;;;;;;25.67;18.83;;;;;;;-1.26;73.25;100028.78;6269627;22;20089;-73
2022/12/15 12:27:02;;;;;;;21.73;17.77;;;;;;;-1.17;72.62;100022.69;6267681;22;20335;-74
2022/12/15 12:30:18;;;;;;;24.42;19.65;;;;;;;-0.94;71.52;100022.38;6268967;22;20058;-76
2022/12/15 12:33:35;;;;;;;22.25;17.73;;;;;;;-1.19;72.31;100019.28;6270760;22;20065;-74
2022/12/15 12:36:42;;;;;;;19.80;16.88;;;;;;;-1.21;72.46;100019.31;6270805;22;20030;-75
2022/12/15 12:39:49;;;;;;;23.83;19.27;;;;;;;-1.03;71.66;100017.38;6269251;22;20080;-76
2022/12/15 12:42:56;;;;;;;24.98;20.35;;;;;;;-1.31;71.82;100015.19;6270555;22;20466;-76
2022/12/15 12:46:05;;;;;;;26.65;20.27;;;;;;;-1.52;72.04;100007.72;6271218;22;20394;-74
2022/12/15 12:49:27;;;;;;;25.50;20.73;;;;;;;-1.25;72.80;99996.28;6271396;22;20023;-76
2022/12/15 12:52:35;;;;;;;26.23;20.85;;;;;;;-1.27;72.33;99990.34;6270232;22;20034;-74
2022/12/15 12:55:42;;;;;;;23.85;18.63;;;;;;;-1.18;72.35;99977.41;6251032;22;20070;-71
2022/12/15 12:58:47;;;;;;;23.30;19.25;;;;;;;-0.97;71.61;99971.09;6270034;22;20242;-71
2022/12/15 13:01:50;;;;;;;23.52;18.50;;;;;;;-0.95;71.72;99962.53;6272563;22;20022;-70
2022/12/15 13:05:26;;;;;;;23.30;19.20;;;;;;;-0.94;71.28;99971.06;6273094;22;20069;-71
2022/12/15 13:08:51;;;;;;;25.90;20.05;;;;;;;-1.07;72.18;99966.97;6272461;22;20058;-69
2022/12/15 13:17:33;;;;;;;31.85;22.70;;;;;;;-1.09;72.63;99948.19;6269322;22;20182;-70
2022/12/15 13:21:44;;;;;;;34.80;22.58;;;;;;;-1.28;72.47;99935.59;6208845;22;20026;-69
2022/12/15 13:24:55;;;;;;;27.67;21.85;;;;;;;-1.13;73.17;99923.44;6270987;22;20022;-71
2022/12/15 13:28:14;;;;;;;29.08;23.00;;;;;;;-0.96;71.95;99924.03;6271042;22;20438;-71
2022/12/15 13:40:53;;;;;;;26.00;20.98;;;;;;;-1.45;73.74;99915.31;6300928;22;20080;-70
2022/12/15 13:53:25;;;;;;;33.70;26.08;;;;;;;-1.24;72.56;99885.13;6259381;22;20022;-71
2022/12/15 13:56:45;;;;;;;35.35;24.00;;;;;;;-1.31;72.62;99879.25;6300541;22;20021;-70
2022/12/15 13:59:51;;;;;;;29.25;23.20;;;;;;;-1.38;73.33;99877.59;6300801;22;20037;-70
2022/12/15 14:03:10;;;;;;;31.83;25.83;;;;;;;-1.41;73.44;99878.50;6300260;22;20465;-70
2022/12/15 14:06:17;;;;;;;23.37;17.27;;;;;;;-1.48;73.94;99870.91;6300992;22;20026;-70
2022/12/15 14:09:49;;;;;;;;;;;;;;;-1.55;73.70;99875.28;6301587;22;20267;-71
2022/12/15 14:13:50;;;;;;;31.52;23.55;;;;;;;-1.59;73.93;99872.78;6283714;22;19914;-71
2022/12/15 14:17:00;;;;;;;29.08;23.60;;;;;;;-1.47;73.35;99870.03;6281290;22;20076;-71
2022/12/15 14:20:27;;;;;;;30.27;24.45;;;;;;;-1.56;73.89;99878.72;6299386;22;20353;-71
2022/12/15 14:23:44;;;;;;;28.27;22.65;;;;;;;-1.43;73.16;99879.41;6299647;22;20093;-71
2022/12/15 14:26:51;;;;;;;30.45;23.73;;;;;;;-1.85;74.02;99891.03;6300896;22;20026;-71
2022/12/15 14:30:25;;;;;;;32.33;24.80;;;;;;;-1.67;73.31;99908.75;6300118;22;20022;-71
2022/12/15 14:33:36;;;;;;;32.22;24.67;;;;;;;-1.81;74.62;99908.09;6268799;22;20414;-71
2022/12/15 14:36:42;;;;;;;36.20;25.33;;;;;;;-1.85;74.67;99904.72;6232842;22;20027;-71
2022/12/15 14:39:48;;;;;;;29.70;24.48;;;;;;;-1.58;74.03;99902.69;6268795;22;20080;-71
2022/12/15 14:42:53;;;;;;;29.00;23.25;;;;;;;-1.55;73.91;99900.91;6268730;22;20332;-71
2022/12/15 14:46:18;;;;;;;31.60;23.55;;;;;;;-1.55;73.91;99900.91;6263408;22;20085;-71
2022/12/15 14:49:30;;;;;;;28.48;23.35;;;;;;;-1.54;74.51;99906.88;6263303;22;20405;-70
2022/12/15 14:52:37;;;;;;;30.23;24.20;;;;;;;-1.44;74.17;99899.06;6264277;22;20405;-72
2022/12/15 14:55:47;;;;;;;29.67;23.77;;;;;;;-1.51;73.57;99910.25;6264303;22;20070;-70
2022/12/15 14:59:14;;;;;;;29.33;21.60;;;;;;;-1.61;74.04;99926.63;6265262;22;20112;-71
2022/12/15 15:02:27;;;;;;;28.15;20.60;;;;;;;-1.48;73.54;99927.31;6265227;22;20026;-70
2022/12/15 15:05:31;;;;;;;28.08;21.92;;;;;;;-1.45;73.67;99930.69;6266975;22;20473;-71
2022/12/15 15:08:55;;;;;;;28.05;23.30;;;;;;;-1.44;73.60;99929.81;6266446;22;20031;-71
2022/12/15 15:17:48;;;;;;;24.58;19.77;;;;;;;-1.47;73.52;99945.28;6209904;22;20031;-70
2022/12/15 15:21:16;;;;;;;26.52;17.85;;;;;;;-1.70;73.74;99958.34;6266874;22;20022;-70
2022/12/15 15:24:28;;;;;;;22.63;18.75;;;;;;;-1.73;73.87;99963.50;6267594;22;20452;-70
2022/12/15 15:42:50;;;;;;;;;;;;;;;;;;;;;
2022/12/15 15:46:48;;;;;;;20.45;16.15;;;;;;;-1.99;74.54;99975.75;6206664;23;20468;-70
2022/12/15 15:50:20;;;;;;;22.50;17.98;;;;;;;-1.94;73.71;99986.81;6207668;23;20027;-70
2022/12/15 15:53:24;;;;;;;21.38;16.60;;;;;;;-1.85;73.59;99981.59;6207234;23;20022;-70
2022/12/15 16:01:54;;;;;;;24.40;18.45;;;;;;;-1.68;74.25;99966.03;6207056;23;20348;-70
2022/12/15 16:15:12;;;;;;;26.40;17.70;;;;;;;-1.58;72.97;99971.91;6203941;23;20027;-70
2022/12/15 16:18:44;;;;;;;32.05;20.63;;;;;;;-1.51;73.01;99976.09;6217101;22;20081;-70
2022/12/15 16:46:07;;;;;;;26.45;19.85;;;;;;;-1.91;75.13;99958.59;6272851;22;20085;-69
2022/12/15 17:09:24;;;;;;;29.38;22.65;;;;;;;-1.78;74.72;99978.09;6236710;22;20016;-69
2022/12/15 17:12:31;;;;;;;30.48;22.70;;;;;;;-1.79;74.82;99975.53;6240391;22;20054;-69
2022/12/15 17:25:43;;;;;;;29.27;22.48;;;;;;;-1.99;76.40;100001.38;6240337;22;20348;-69
2022/12/15 17:29:07;;;;;;;35.97;26.45;;;;;;;-2.11;76.83;99992.94;6239195;23;20026;-69
2022/12/15 17:32:16;;;;;;;28.73;22.15;;;;;;;-1.74;75.63;99986.59;6239371;23;20524;-69
2022/12/15 17:35:23;;;;;;;33.08;23.30;;;;;;;-1.72;75.81;99975.47;6238511;22;20027;-69
2022/12/15 17:38:27;;;;;;;32.47;24.00;;;;;;;-1.56;75.12;99978.72;6239567;23;20073;-69
2022/12/15 17:41:31;;;;;;;31.17;23.88;;;;;;;-1.49;74.97;99982.06;6238732;23;20022;-69
2022/12/15 17:44:38;;;;;;;33.25;25.90;;;;;;;-1.96;75.90;99975.72;6239127;23;20089;-69
2022/12/15 17:48:16;;;;;;;30.85;23.20;;;;;;;-1.75;75.48;99965.25;6240469;23;20454;-69
2022/12/15 18:10:20;;;;;;;37.30;25.83;;;;;;;-1.59;75.37;99947.13;6238284;23;20055;-69
2022/12/15 18:14:07;;;;;;;35.03;24.23;;;;;;;-1.58;75.36;99936.00;6086936;23;20085;-69
2022/12/15 18:32:40;;;;;;;35.83;25.55;;;;;;;-1.61;75.19;99946.31;6089362;23;20505;-69
2022/12/15 18:46:25;;;;;;;;;;;;;;;;;;;;;
2022/12/15 19:00:12;;;;;;;38.20;27.00;;;;;;;-2.08;75.14;99955.34;6151017;23;20056;-69
2022/12/15 19:15:26;;;;;;;35.65;26.75;;;;;;;-1.72;74.85;99951.56;6236074;22;20024;-70
2022/12/15 19:22:30;;;;;;;39.28;28.02;;;;;;;-1.80;75.74;99956.75;6246820;23;20038;-70
2022/12/15 19:26:22;;;;;;;39.67;26.75;;;;;;;-1.88;76.22;99953.44;6250784;22;20081;-70
2022/12/15 19:29:26;;;;;;;35.53;26.75;;;;;;;-1.68;75.30;99951.50;6277291;22;20022;-72
2022/12/15 19:32:32;;;;;;;37.78;27.40;;;;;;;-1.75;75.53;99959.28;6277345;22;20054;-71
2022/12/15 19:35:37;;;;;;;35.22;26.35;;;;;;;-1.81;76.02;99964.47;6276699;22;20634;-72
2022/12/15 19:39:43;;;;;;;34.47;25.48;;;;;;;-1.80;75.47;99961.88;6276459;22;20519;-72
2022/12/15 19:43:43;;;;;;;32.47;25.20;;;;;;;-1.83;75.54;99961.91;6276360;22;20068;-71
2022/12/15 19:46:47;;;;;;;36.15;25.20;;;;;;;-2.00;75.97;99963.81;6245756;23;20019;-71
2022/12/15 21:13:36;;;;;;;;;;;;;;;;;;;;;
2022/12/15 21:27:00;;;;;;;;;;;;;;;;;;;;;
2022/12/15 21:31:50;;;;;;;34.97;23.67;;;;;;;-3.59;78.19;99942.75;5979761;24;20026;-71
2022/12/15 21:35:44;;;;;;;36.58;23.92;;;;;;;-3.80;78.23;99943.66;5979816;24;20080;-71
2022/12/15 23:33:08;;;;;;;36.83;24.70;;;;;;;-3.76;79.30;100009.25;6233674;23;20351;-70
2022/12/15 23:37:34;;;;;;;38.90;24.98;;;;;;;-3.77;79.05;100003.25;6160521;23;20023;-70
